Time;durP1;ratioP1;P1;durP2;ratioP2;P2;SDS_P1;SDS_P2;PMS_P1;PMS_P2;Temp;Humidity;BMP_temperature;BMP_pressure;BME280_temperature;BME280_humidity;BME280_pressure;Samples;Min_cycle;Max_cycle;Signal;HPM_P1;HPM_P2
2021/11/14 00:00:56;;;;;;;18.95;15.20;;;8.60;86.50;;;6.57;100.00;95965.19;4972290;28;20069;-66
2021/11/14 00:03:22;;;;;;;20.92;15.32;;;8.60;86.50;;;6.56;100.00;95958.31;4967642;28;20038;-66
2021/11/14 00:05:48;;;;;;;18.90;14.98;;;8.60;86.40;;;6.56;100.00;95955.69;4989810;28;20030;-68
2021/11/14 00:08:14;;;;;;;20.98;15.57;;;8.60;86.50;;;6.54;100.00;95941.97;4972411;28;20026;-66
2021/11/14 00:10:42;;;;;;;17.50;14.90;;;8.60;86.50;;;6.56;100.00;95953.09;4989310;28;20137;-66
2021/11/14 00:13:08;;;;;;;17.83;14.65;;;8.60;86.40;;;6.56;100.00;95949.66;4973957;28;20053;-66
2021/11/14 00:15:34;;;;;;;16.55;14.55;;;8.60;86.40;;;6.55;100.00;95948.84;4974714;28;20034;-66
2021/11/14 00:17:59;;;;;;;19.58;14.77;;;8.60;86.40;;;6.54;100.00;95949.81;4990219;28;20680;-66
2021/11/14 00:20:25;;;;;;;17.65;14.55;;;8.60;86.40;;;6.56;100.00;95947.03;4973204;28;20027;-66
2021/11/14 00:22:51;;;;;;;19.95;15.10;;;8.60;86.40;;;6.56;100.00;95952.25;4990153;28;20037;-66
2021/11/14 00:25:18;;;;;;;17.70;14.35;;;8.60;86.30;;;6.55;100.00;95951.44;4983340;28;20057;-66
2021/11/14 00:27:45;;;;;;;16.55;14.15;;;8.60;86.30;;;6.55;100.00;95955.88;4972892;28;20526;-66
2021/11/14 00:30:11;;;;;;;18.25;14.43;;;8.60;86.30;;;6.56;100.00;95953.09;4956321;28;20129;-67
2021/11/14 00:32:37;;;;;;;17.33;14.73;;;8.60;86.30;;;6.56;100.00;95955.69;4953634;28;20482;-67
2021/11/14 00:35:04;;;;;;;19.48;15.18;;;8.60;86.30;;;6.54;100.00;95947.22;4990320;28;20045;-67
2021/11/14 00:37:32;;;;;;;19.00;14.45;;;8.60;86.30;;;6.54;100.00;95952.44;4981271;28;20035;-67
2021/11/14 00:39:57;;;;;;;18.90;14.95;;;8.60;86.20;;;6.52;100.00;95951.78;4974124;28;20045;-66
2021/11/14 00:42:23;;;;;;;18.00;15.38;;;8.60;86.30;;;6.51;100.00;95950.16;4980052;28;20030;-67
2021/11/14 00:44:49;;;;;;;17.60;15.68;;;8.60;86.30;;;6.52;100.00;95953.59;4988816;28;20026;-66
2021/11/14 00:47:15;;;;;;;17.77;15.43;;;8.50;86.40;;;6.49;100.00;95952.13;4958864;28;20034;-67
2021/11/14 00:49:40;;;;;;;18.52;15.73;;;8.60;86.40;;;6.49;100.00;95952.13;4988622;28;20038;-66
2021/11/14 00:52:07;;;;;;;20.10;16.00;;;8.60;86.40;;;6.50;100.00;95958.16;4988647;28;20509;-66
2021/11/14 00:54:32;;;;;;;17.55;15.60;;;8.50;86.50;;;6.49;100.00;95957.34;4972550;28;20035;-66
2021/11/14 00:56:58;;;;;;;17.42;14.75;;;8.50;86.50;;;6.47;100.00;95954.09;4972306;28;20107;-66
2021/11/14 00:59:24;;;;;;;19.42;15.38;;;8.50;86.40;;;6.48;100.00;95960.94;4988785;28;20041;-67
2021/11/14 01:01:49;;;;;;;19.17;14.95;;;8.50;86.50;;;6.49;100.00;95956.53;4972208;28;20520;-67
2021/11/14 01:04:15;;;;;;;19.50;16.05;;;8.50;86.50;;;6.48;100.00;95960.94;4972598;28;20062;-67
2021/11/14 01:06:41;;;;;;;20.08;15.48;;;8.50;86.50;;;6.47;100.00;95959.31;4972312;28;20070;-67
2021/11/14 01:09:07;;;;;;;17.25;15.27;;;8.50;86.40;;;6.47;100.00;95963.72;4968743;28;20054;-67
2021/11/14 01:11:32;;;;;;;18.52;16.02;;;8.50;86.50;;;6.47;100.00;95964.53;4952873;28;20038;-67
2021/11/14 01:13:58;;;;;;;18.58;15.38;;;8.50;86.50;;;6.48;100.00;95971.41;4963010;28;20046;-67
2021/11/14 01:16:24;;;;;;;18.08;15.85;;;8.50;86.50;;;6.48;100.00;95976.63;4984530;28;20552;-67
2021/11/14 01:18:50;;;;;;;18.25;15.55;;;8.50;86.50;;;6.47;100.00;95964.53;4988669;28;20022;-66
2021/11/14 01:21:16;;;;;;;16.40;14.68;;;8.50;86.50;;;6.48;100.00;95970.59;4972515;28;20094;-67
2021/11/14 01:23:43;;;;;;;20.35;16.67;;;8.60;86.30;;;6.46;100.00;95968.16;4988127;28;20043;-66
2021/11/14 01:26:09;;;;;;;19.52;16.50;;;8.50;86.30;;;6.46;100.00;95970.75;4968625;28;20035;-66
2021/11/14 01:28:35;;;;;;;18.20;16.27;;;8.50;86.30;;;6.45;100.00;95967.31;4969698;28;20147;-66
2021/11/14 01:31:01;;;;;;;18.83;15.48;;;8.50;86.30;;;6.45;100.00;95974.34;4951647;28;20089;-66
2021/11/14 01:33:27;;;;;;;17.98;16.02;;;8.50;86.30;;;6.44;100.00;95975.34;4952262;28;20038;-67
2021/11/14 01:35:53;;;;;;;17.70;15.00;;;8.50;86.40;;;6.44;100.00;95975.34;4969191;28;20034;-67
2021/11/14 01:38:19;;;;;;;18.38;15.57;;;8.50;86.40;;;6.43;100.00;95974.53;4957136;28;20046;-67
2021/11/14 01:40:51;;;;;;;18.20;15.90;;;8.40;86.50;;;6.44;100.00;95972.72;4968992;28;20046;-67
2021/11/14 01:43:29;;;;;;;20.30;16.30;;;8.40;86.30;;;6.43;100.00;95973.72;4983557;28;20045;-67
2021/11/14 01:45:55;;;;;;;20.23;16.65;;;8.40;86.50;;;6.42;100.00;95972.06;4973266;28;20071;-67
2021/11/14 01:48:22;;;;;;;18.48;16.23;;;8.40;86.50;;;6.42;100.00;95972.06;4977526;28;20034;-66
2021/11/14 01:50:49;;;;;;;17.60;15.80;;;8.40;86.50;;;6.43;100.00;95973.72;4952868;28;20391;-66
2021/11/14 01:53:15;;;;;;;18.67;16.15;;;8.50;86.50;;;6.42;100.00;95972.88;4976668;28;20128;-66
2021/11/14 01:55:43;;;;;;;18.85;16.15;;;8.50;86.40;;;6.42;100.00;95972.88;4972000;28;20026;-67
2021/11/14 01:58:19;;;;;;;17.45;15.70;;;8.50;86.40;;;6.43;100.00;95968.47;4987127;28;20022;-66
2021/11/14 02:00:59;;;;;;;18.73;16.10;;;8.40;86.50;;;6.43;100.00;95971.09;4964493;28;20442;-66
2021/11/14 02:03:26;;;;;;;17.80;15.68;;;8.50;86.40;;;6.41;100.00;95967.84;4970991;28;20141;-67
2021/11/14 02:05:51;;;;;;;20.23;17.02;;;8.40;86.40;;;6.40;100.00;95971.44;4987915;28;20162;-67
2021/11/14 02:08:19;;;;;;;18.88;16.27;;;8.50;86.40;;;6.41;100.00;95965.22;4970910;28;20030;-67
2021/11/14 02:10:45;;;;;;;18.77;16.83;;;8.40;86.50;;;6.40;100.00;95963.59;4983780;28;20027;-67
2021/11/14 02:13:11;;;;;;;18.98;16.27;;;8.40;86.50;;;6.40;100.00;95958.38;4999674;28;20033;-67
2021/11/14 02:15:37;;;;;;;18.70;16.50;;;8.40;86.50;;;6.40;100.00;95961.78;4987100;28;20053;-66
2021/11/14 02:18:04;;;;;;;17.95;15.80;;;8.40;86.40;;;6.37;100.00;95959.50;4965255;28;20138;-67
2021/11/14 02:20:30;;;;;;;19.33;16.92;;;8.40;86.40;;;6.37;100.00;95958.69;4961946;28;20118;-66
2021/11/14 02:22:56;;;;;;;18.50;16.60;;;8.40;86.50;;;6.36;100.00;95954.47;4971394;28;20049;-67
2021/11/14 02:25:22;;;;;;;22.50;17.38;;;8.40;86.60;;;6.35;100.00;95955.44;4967840;28;20039;-67
2021/11/14 02:27:52;;;;;;;19.85;16.92;;;8.30;86.70;;;6.35;100.00;95956.25;4946449;28;20530;-67
2021/11/14 02:30:20;;;;;;;19.90;16.30;;;8.40;86.80;;;6.36;100.00;95963.13;4969798;28;20126;-66
2021/11/14 02:32:46;;;;;;;18.88;16.88;;;8.40;86.70;;;6.39;100.00;95961.97;4971422;28;20269;-67
2021/11/14 02:35:11;;;;;;;17.67;15.82;;;8.40;86.70;;;6.38;100.00;95960.34;5007672;28;20120;-67
2021/11/14 02:37:37;;;;;;;17.80;15.85;;;8.40;86.70;;;6.39;100.00;95959.34;4990873;28;20062;-66
2021/11/14 02:40:05;;;;;;;18.15;16.00;;;8.40;86.60;;;6.38;100.00;95963.75;4975031;28;20043;-66
2021/11/14 02:42:30;;;;;;;18.48;15.82;;;8.40;86.60;;;6.37;100.00;95954.28;4972555;28;20118;-67
2021/11/14 02:44:56;;;;;;;18.30;15.85;;;8.40;86.50;;;6.37;100.00;95958.69;4991069;28;20124;-67
2021/11/14 02:47:22;;;;;;;21.40;16.38;;;8.40;86.50;;;6.35;100.00;95955.44;4979753;28;20116;-66
2021/11/14 02:49:48;;;;;;;20.73;17.00;;;8.30;86.60;;;6.32;100.00;95958.34;4996766;23;20082;-69
2021/11/14 02:52:13;;;;;;;18.08;16.17;;;8.30;86.80;;;6.30;100.00;95955.09;5006845;28;20811;-67
2021/11/14 02:54:40;;;;;;;18.25;16.27;;;8.30;86.70;;;6.32;100.00;95967.00;4977349;28;20462;-67
2021/11/14 02:57:06;;;;;;;19.92;16.15;;;8.30;86.70;;;6.32;100.00;95964.41;4999471;28;20042;-66
2021/11/14 02:59:33;;;;;;;20.83;17.15;;;8.30;86.70;;;6.34;100.00;95964.25;4948470;28;20038;-66
2021/11/14 03:01:58;;;;;;;22.85;16.95;;;8.30;86.70;;;6.32;100.00;95956.56;4956213;28;20027;-66
2021/11/14 03:04:27;;;;;;;19.27;16.38;;;8.40;86.70;;;6.35;100.00;95963.28;4989666;28;20034;-66
2021/11/14 03:06:53;;;;;;;18.95;16.30;;;8.40;86.60;;;6.35;100.00;95969.31;4956473;28;20090;-66
2021/11/14 03:09:20;;;;;;;20.42;16.65;;;8.40;86.60;;;6.36;100.00;95964.91;4971905;28;20042;-66
2021/11/14 03:11:45;;;;;;;20.60;18.40;;;8.40;86.60;;;6.37;100.00;95969.16;4940405;28;20073;-66
2021/11/14 03:14:11;;;;;;;19.90;17.67;;;8.40;86.60;;;6.36;100.00;95967.53;4987896;28;20419;-66
2021/11/14 03:16:38;;;;;;;19.27;17.02;;;8.40;86.60;;;6.34;100.00;95956.44;4973344;28;20092;-66
2021/11/14 03:19:03;;;;;;;22.38;18.00;;;8.40;86.50;;;6.35;100.00;95965.91;4972375;28;20039;-66
2021/11/14 03:21:29;;;;;;;20.35;17.30;;;8.40;86.50;;;6.34;100.00;95964.25;4973944;28;20158;-67
2021/11/14 03:23:55;;;;;;;21.50;18.40;;;8.40;86.60;;;6.33;100.00;95962.59;4977369;28;20479;-66
2021/11/14 03:26:22;;;;;;;20.88;17.80;;;8.40;86.60;;;6.32;100.00;95967.00;4971954;28;20470;-66
2021/11/14 03:28:47;;;;;;;20.55;18.00;;;8.30;86.60;;;6.33;100.00;95973.06;4967786;28;20940;-66
2021/11/14 03:31:13;;;;;;;19.63;17.52;;;8.40;86.50;;;6.33;100.00;95968.66;4974203;28;20038;-66
2021/11/14 03:33:39;;;;;;;20.02;17.92;;;8.40;86.50;;;6.35;100.00;95965.91;4990712;28;20034;-67
2021/11/14 03:36:08;;;;;;;18.88;16.88;;;8.40;86.50;;;6.35;100.00;95965.91;5004481;28;20603;-66
2021/11/14 03:38:46;;;;;;;20.38;16.98;;;8.40;86.60;;;6.37;100.00;95966.53;4958441;28;20037;-66
2021/11/14 03:41:19;;;;;;;20.02;17.70;;;8.40;86.50;;;6.37;100.00;95969.16;4979500;28;20043;-66
2021/11/14 03:43:45;;;;;;;20.73;18.15;;;8.40;86.40;;;6.38;100.00;95965.56;4970189;28;20030;-66
2021/11/14 03:46:11;;;;;;;23.25;18.58;;;8.40;86.50;;;6.37;100.00;95977.81;4966287;28;20163;-66
2021/11/14 03:48:39;;;;;;;21.77;19.40;;;8.40;86.50;;;6.36;100.00;95975.34;4988001;28;20518;-67
2021/11/14 03:51:05;;;;;;;21.65;19.10;;;8.40;86.40;;;6.33;100.00;95971.25;4987941;28;20553;-66
2021/11/14 03:53:31;;;;;;;22.23;18.52;;;8.40;86.40;;;6.34;100.00;95985.16;4987661;28;20046;-66
2021/11/14 03:55:56;;;;;;;21.60;18.95;;;8.40;86.40;;;6.33;100.00;95984.31;4982276;28;20041;-66
2021/11/14 03:58:22;;;;;;;21.05;18.42;;;8.40;86.40;;;6.30;100.00;95981.22;4972924;28;20039;-66
2021/11/14 04:00:52;;;;;;;21.30;18.88;;;8.30;86.40;;;6.32;100.00;95984.47;4970982;28;20035;-66
2021/11/14 04:03:18;;;;;;;22.23;18.55;;;8.40;86.40;;;6.32;100.00;95977.47;4973023;28;20143;-66
2021/11/14 04:05:44;;;;;;;22.20;18.40;;;8.40;86.40;;;6.34;100.00;95977.31;4980742;28;20038;-66
2021/11/14 04:08:16;;;;;;;20.73;18.52;;;8.30;86.40;;;6.35;100.00;95971.94;4994643;28;20042;-66
2021/11/14 04:10:43;;;;;;;22.42;19.20;;;8.40;86.50;;;6.33;100.00;95979.09;4971553;28;20612;-66
2021/11/14 04:13:09;;;;;;;21.88;19.23;;;8.30;86.40;;;6.33;100.00;95976.47;4974938;28;20117;-66
2021/11/14 04:15:35;;;;;;;22.60;19.88;;;8.40;86.40;;;6.33;100.00;95973.88;4980876;28;20533;-66
2021/11/14 04:18:01;;;;;;;24.75;19.73;;;8.30;86.40;;;6.32;100.00;95971.41;5005923;28;20038;-68
2021/11/14 04:20:29;;;;;;;24.30;20.23;;;8.40;86.40;;;6.31;100.00;95975.84;4966028;28;20447;-66
2021/11/14 04:22:55;;;;;;;23.63;21.02;;;8.40;86.40;;;6.30;100.00;95968.16;4969858;28;20035;-66
2021/11/14 04:25:20;;;;;;;23.17;20.23;;;8.30;86.50;;;6.30;100.00;95973.38;4971401;28;20507;-68
2021/11/14 04:27:46;;;;;;;22.13;18.92;;;8.30;86.40;;;6.30;100.00;95973.38;4970945;28;20498;-66
2021/11/14 04:30:12;;;;;;;22.52;20.02;;;8.30;86.40;;;6.29;100.00;95974.38;4954360;28;20126;-66
2021/11/14 04:32:38;;;;;;;25.15;20.05;;;8.40;86.30;;;6.27;100.00;95979.75;4951609;28;20031;-66
2021/11/14 04:35:05;;;;;;;23.67;19.83;;;8.30;86.30;;;6.24;100.00;95981.88;4968125;28;20035;-66
2021/11/14 04:37:30;;;;;;;23.38;19.40;;;8.30;86.30;;;6.24;100.00;95974.88;4953836;28;20541;-66
2021/11/14 04:39:56;;;;;;;22.38;18.98;;;8.30;86.30;;;6.26;100.00;95985.16;4971818;28;20062;-66
2021/11/14 04:42:22;;;;;;;22.33;19.88;;;8.30;86.40;;;6.25;100.00;95981.72;4987575;28;20054;-66
2021/11/14 04:44:47;;;;;;;24.45;19.65;;;8.30;86.30;;;6.23;100.00;95982.88;5001335;28;20050;-66
2021/11/14 04:47:13;;;;;;;22.40;18.92;;;8.20;86.40;;;6.25;100.00;95975.69;4989312;28;20042;-66
2021/11/14 04:49:39;;;;;;;22.00;19.48;;;8.20;86.50;;;6.26;100.00;95982.53;4972899;28;20133;-67
2021/11/14 04:52:05;;;;;;;21.60;19.15;;;8.20;86.50;;;6.25;100.00;95983.53;4976925;28;20030;-66
2021/11/14 04:54:31;;;;;;;22.45;19.02;;;8.20;86.50;;;6.24;100.00;95984.50;5000074;28;20092;-66
2021/11/14 04:56:57;;;;;;;21.60;19.25;;;8.20;86.50;;;6.21;100.00;95974.38;4969833;28;20412;-66
2021/11/14 04:59:22;;;;;;;24.52;19.17;;;8.20;86.20;;;6.22;100.00;95981.25;4970654;28;20582;-66
2021/11/14 05:01:48;;;;;;;22.10;18.25;;;8.20;86.40;;;6.22;100.00;95981.25;4983196;28;20569;-66
2021/11/14 05:04:15;;;;;;;20.50;18.02;;;8.20;86.30;;;6.18;100.00;95985.97;4969721;28;20055;-66
2021/11/14 05:06:40;;;;;;;24.85;19.75;;;8.20;86.30;;;6.19;100.00;95986.78;4954056;28;20047;-66
2021/11/14 05:09:06;;;;;;;21.88;19.13;;;8.10;86.50;;;6.21;100.00;95987.44;4969688;28;20553;-66
2021/11/14 05:11:32;;;;;;;25.23;21.33;;;8.20;86.50;;;6.20;100.00;95984.03;4987647;28;20686;-66
2021/11/14 05:13:57;;;;;;;23.52;20.08;;;8.20;86.30;;;6.18;100.00;95991.19;4985832;28;20380;-66
2021/11/14 05:16:23;;;;;;;24.98;21.65;;;8.20;86.30;;;6.17;100.00;95996.59;4970009;28;20510;-66
2021/11/14 05:18:49;;;;;;;25.45;21.17;;;8.20;86.40;;;6.14;100.00;96009.00;4986671;28;20032;-66
2021/11/14 05:21:15;;;;;;;24.65;21.40;;;8.10;86.40;;;6.13;100.00;96004.75;4950796;28;20039;-67
2021/11/14 05:23:41;;;;;;;24.17;21.58;;;8.10;86.40;;;6.13;100.00;96007.38;4952174;28;20544;-66
2021/11/14 05:26:06;;;;;;;23.10;20.67;;;8.10;86.30;;;6.12;100.00;96004.94;4975411;28;20034;-66
2021/11/14 05:28:33;;;;;;;24.35;20.50;;;8.10;86.30;;;6.10;100.00;96007.66;4980667;28;20427;-66
2021/11/14 05:30:58;;;;;;;23.70;20.38;;;8.10;86.20;;;6.08;100.00;96017.47;4985658;28;20034;-66
2021/11/14 05:33:24;;;;;;;21.88;19.42;;;8.10;86.30;;;6.06;100.00;96010.78;4970495;28;20066;-66
2021/11/14 05:35:50;;;;;;;21.73;19.33;;;8.10;86.20;;;6.03;100.00;96014.53;5003314;28;20486;-66
2021/11/14 05:38:16;;;;;;;22.95;20.25;;;8.10;86.20;;;6.04;100.00;96016.16;4990160;28;20050;-66
2021/11/14 05:40:42;;;;;;;23.45;20.60;;;8.00;86.30;;;6.02;100.00;96020.72;4990491;28;20073;-66
2021/11/14 05:43:08;;;;;;;28.92;23.58;;;8.00;86.50;;;6.00;100.00;96022.69;4970510;28;20035;-66
2021/11/14 05:45:34;;;;;;;29.63;23.52;;;8.00;86.50;;;5.98;100.00;96022.03;4970094;28;20027;-66
2021/11/14 05:48:00;;;;;;;30.23;24.88;;;8.00;86.50;;;5.98;100.00;96027.25;4982051;28;20047;-66
2021/11/14 05:50:25;;;;;;;33.83;26.77;;;7.90;86.50;;;5.95;100.00;96030.22;4972045;28;20053;-66
2021/11/14 05:52:51;;;;;;;33.42;26.42;;;7.90;86.60;;;5.94;100.00;96023.34;4979768;28;20537;-65
2021/11/14 05:55:17;;;;;;;33.28;26.85;;;7.90;86.50;;;5.94;100.00;96039.00;4973749;28;20125;-65
2021/11/14 05:57:55;;;;;;;34.30;26.75;;;7.90;86.50;;;5.91;100.00;96034.13;4953574;28;20070;-65
2021/11/14 06:00:31;;;;;;;39.28;27.25;;;7.90;86.60;;;5.91;100.00;96036.72;4962511;28;20557;-64
2021/11/14 06:03:07;;;;;;;36.10;27.35;;;7.80;86.70;;;5.88;100.00;96042.22;4964751;28;20572;-66
2021/11/14 06:05:38;;;;;;;35.38;27.55;;;7.80;86.70;;;5.86;100.00;96044.19;4967881;28;20074;-67
2021/11/14 06:08:05;;;;;;;34.35;27.38;;;7.80;86.70;;;5.87;100.00;96050.22;4939036;28;20510;-66
2021/11/14 06:10:32;;;;;;;34.10;27.23;;;7.80;86.70;;;5.86;100.00;96052.00;4983701;28;20053;-67
2021/11/14 06:12:57;;;;;;;41.92;30.60;;;7.80;86.80;;;5.86;100.00;96054.63;4976491;28;20129;-67
2021/11/14 06:15:23;;;;;;;47.97;36.30;;;7.80;86.70;;;5.87;100.00;96066.69;4969315;28;20118;-67
2021/11/14 06:17:49;;;;;;;36.58;28.70;;;7.90;86.80;;;5.86;100.00;96065.06;4984621;28;20039;-66
2021/11/14 06:20:15;;;;;;;37.13;28.65;;;7.80;86.80;;;5.85;100.00;96064.25;4967853;28;20498;-66
2021/11/14 06:22:41;;;;;;;39.10;28.48;;;7.80;86.70;;;5.85;100.00;96064.25;4967347;28;20038;-66
2021/11/14 06:25:07;;;;;;;36.33;27.70;;;7.80;86.60;;;5.84;100.00;96067.00;4968875;28;20035;-67
2021/11/14 06:27:34;;;;;;;36.75;29.45;;;7.80;86.70;;;5.84;100.00;96069.63;4952589;28;20129;-66
2021/11/14 06:30:00;;;;;;;37.03;29.27;;;7.80;86.70;;;5.83;100.00;96065.38;4984830;28;20047;-67
2021/11/14 06:32:25;;;;;;;39.88;30.05;;;7.80;86.70;;;5.85;100.00;96073.88;4951942;28;20129;-67
2021/11/14 06:34:51;;;;;;;33.28;27.35;;;7.80;86.60;;;5.84;100.00;96077.47;4970692;28;20118;-66
2021/11/14 06:37:17;;;;;;;33.08;26.38;;;7.80;86.50;;;5.83;100.00;96070.59;4969329;28;20046;-67
2021/11/14 06:39:43;;;;;;;34.63;27.02;;;7.80;86.50;;;5.82;100.00;96079.41;4985364;28;20074;-66
2021/11/14 06:42:09;;;;;;;35.13;27.25;;;7.80;86.50;;;5.82;100.00;96082.03;4964604;28;20032;-67
2021/11/14 06:44:35;;;;;;;35.17;28.33;;;7.70;86.40;;;5.81;100.00;96081.22;4966908;28;20355;-66
2021/11/14 06:47:00;;;;;;;35.28;28.05;;;7.70;86.50;;;5.80;100.00;96081.38;4959329;28;20039;-67
2021/11/14 06:49:26;;;;;;;34.85;28.25;;;7.80;86.40;;;5.77;100.00;96090.34;4985122;28;20181;-67
2021/11/14 06:51:52;;;;;;;36.95;27.70;;;7.70;86.30;;;5.77;100.00;96092.13;4984839;28;20031;-66
2021/11/14 06:54:18;;;;;;;38.03;28.98;;;7.70;86.50;;;5.77;100.00;96094.75;4981373;28;20406;-69
2021/11/14 06:56:43;;;;;;;36.30;28.73;;;7.70;86.50;;;5.80;100.00;96097.84;4933799;28;20062;-68
2021/11/14 06:59:09;;;;;;;35.88;27.65;;;7.70;86.70;;;5.82;100.00;96100.28;4977848;28;20118;-65
2021/11/14 07:01:35;;;;;;;34.05;27.38;;;7.80;86.50;;;5.84;100.00;96100.94;4984551;28;20051;-66
2021/11/14 07:04:02;;;;;;;35.03;27.38;;;7.80;86.50;;;5.90;100.00;96105.59;4968187;28;20063;-65
2021/11/14 07:06:28;;;;;;;37.97;27.17;;;7.90;86.30;;;5.94;100.00;96106.06;4981088;28;20043;-71
2021/11/14 07:08:53;;;;;;;37.15;28.75;;;8.00;86.30;;;5.95;100.00;96105.09;4967591;28;20035;-67
2021/11/14 07:11:19;;;;;;;40.65;30.75;;;7.90;86.20;;;5.96;100.00;96110.16;4985350;28;20031;-66
2021/11/14 07:13:46;;;;;;;38.55;29.83;;;8.00;86.00;;;5.95;100.00;96108.53;4985262;28;20126;-67
2021/11/14 07:16:11;;;;;;;39.85;29.92;;;8.00;85.90;;;5.96;100.00;96112.78;4984334;28;20089;-66
2021/11/14 07:18:37;;;;;;;37.50;29.88;;;8.00;85.80;;;5.95;100.00;96111.13;4970949;28;20410;-67
2021/11/14 07:21:03;;;;;;;37.33;30.73;;;8.00;85.80;;;5.97;100.00;96114.41;4973775;28;20053;-67
2021/11/14 07:23:28;;;;;;;39.08;29.85;;;8.00;85.80;;;5.97;100.00;96114.41;4973636;28;20069;-65
2021/11/14 07:25:54;;;;;;;37.80;29.33;;;8.00;85.80;;;5.99;100.00;96114.25;4973564;28;20122;-68
2021/11/14 07:28:20;;;;;;;41.35;31.35;;;8.10;85.80;;;6.04;100.00;96120.59;4972373;28;20070;-65
2021/11/14 07:30:46;;;;;;;39.40;30.10;;;8.10;85.70;;;6.05;100.00;96124.84;4990069;28;20097;-67
2021/11/14 07:33:11;;;;;;;40.97;31.35;;;8.10;85.80;;;6.07;100.00;96120.28;5003633;28;20034;-68
2021/11/14 07:35:37;;;;;;;38.20;30.50;;;8.10;85.60;;;6.11;100.00;96121.63;4989720;28;20173;-66
2021/11/14 07:38:03;;;;;;;39.80;31.38;;;8.10;85.70;;;6.13;100.00;96124.06;4979348;28;20031;-66
2021/11/14 07:40:29;;;;;;;40.13;31.25;;;8.20;85.70;;;6.16;100.00;96122.94;4971741;28;20027;-66
2021/11/14 07:42:55;;;;;;;43.42;31.27;;;8.30;85.70;;;6.22;100.00;96127.50;4972330;28;20042;-66
2021/11/14 07:45:22;;;;;;;40.60;32.28;;;8.40;85.40;;;6.25;100.00;96129.78;4977238;28;20085;-66
2021/11/14 07:47:48;;;;;;;39.00;30.85;;;8.40;85.20;;;6.27;100.00;96123.41;4958713;28;20046;-66
2021/11/14 07:50:14;;;;;;;40.13;31.63;;;8.40;85.00;;;6.28;100.00;96132.88;5001178;28;20042;-67
2021/11/14 07:52:40;;;;;;;50.83;41.30;;;8.40;84.90;;;6.31;100.00;96127.34;4987578;28;20034;-68
2021/11/14 07:55:08;;;;;;;46.33;37.17;;;8.40;85.00;;;6.33;100.00;96129.78;4983996;28;20534;-69
2021/11/14 07:57:34;;;;;;;42.42;34.13;;;8.40;84.70;;;6.33;100.00;96132.41;4968271;28;20070;-69
2021/11/14 08:00:01;;;;;;;52.13;39.97;;;8.40;84.40;;;6.34;100.00;96131.44;4967377;28;20047;-68
2021/11/14 08:02:26;;;;;;;42.20;33.90;;;8.40;84.50;;;6.35;100.00;96130.47;4969070;28;20487;-68
2021/11/14 08:04:52;;;;;;;41.97;30.38;;;8.40;84.40;;;6.38;100.00;96132.75;4975818;28;20089;-69
2021/11/14 08:07:18;;;;;;;44.13;33.80;;;8.50;84.30;;;6.39;100.00;96134.38;4994921;28;20566;-70
2021/11/14 08:09:44;;;;;;;42.05;32.78;;;8.50;84.20;;;6.45;100.00;96128.50;4956313;28;20622;-68
2021/11/14 08:12:09;;;;;;;39.05;31.50;;;8.60;84.20;;;6.46;100.00;96124.91;4966796;28;20034;-67
2021/11/14 08:14:35;;;;;;;39.10;31.17;;;8.60;83.80;;;6.48;100.00;96119.53;4977172;28;20042;-67
2021/11/14 08:17:01;;;;;;;48.35;38.72;;;8.60;83.60;;;6.48;100.00;96112.50;4971453;28;20034;-68
2021/11/14 08:19:27;;;;;;;39.80;32.35;;;8.60;83.70;;;6.48;100.00;96128.19;4967580;28;20039;-68
2021/11/14 08:21:52;;;;;;;40.15;30.92;;;8.60;83.60;;;6.53;100.00;96125.06;4970048;28;20054;-68
2021/11/14 08:24:18;;;;;;;37.80;30.42;;;8.60;83.90;;;6.57;100.00;96124.59;4965714;28;20507;-68
2021/11/14 08:26:44;;;;;;;39.15;31.70;;;8.60;83.50;;;6.60;100.00;96126.88;4985746;28;20038;-68
2021/11/14 08:29:10;;;;;;;41.83;31.63;;;8.60;83.80;;;6.60;100.00;96126.88;4968893;28;20727;-68
2021/11/14 08:31:35;;;;;;;38.40;30.27;;;8.60;83.40;;;6.60;100.00;96132.13;4971243;28;20509;-68
2021/11/14 08:34:01;;;;;;;41.17;29.17;;;8.70;83.50;;;6.62;100.00;96130.16;4982929;28;20517;-67
2021/11/14 08:36:27;;;;;;;40.63;30.63;;;8.70;83.30;;;6.61;100.00;96131.13;4968122;28;20057;-68
2021/11/14 08:38:55;;;;;;;41.30;32.22;;;8.70;83.70;;;6.64;100.00;96133.41;4985510;28;20027;-68
2021/11/14 08:41:23;;;;;;;37.70;30.52;;;8.80;83.70;;;6.66;100.00;96133.25;4971718;28;20043;-68
2021/11/14 08:43:48;;;;;;;41.00;30.70;;;8.80;83.50;;;6.70;100.00;96124.91;4969811;28;20114;-67
2021/11/14 08:46:14;;;;;;;35.60;28.98;;;8.90;83.40;;;6.77;100.00;96138.13;4983193;28;20043;-67
2021/11/14 08:48:40;;;;;;;34.15;27.70;;;9.00;82.90;;;6.83;100.00;96131.44;4969760;28;20046;-68
2021/11/14 08:51:06;;;;;;;33.78;27.13;;;9.10;82.50;;;6.88;100.00;96134.38;4969229;28;20069;-68
2021/11/14 08:53:32;;;;;;;35.47;26.33;;;9.10;82.50;;;6.89;100.00;96130.78;4971450;28;20041;-66
2021/11/14 08:55:58;;;;;;;35.78;28.25;;;9.10;82.40;;;6.93;100.00;96132.09;4968764;28;20035;-68
2021/11/14 08:58:24;;;;;;;33.33;26.80;;;9.10;82.20;;;6.94;100.00;96128.47;4975382;28;20193;-66
2021/11/14 09:00:50;;;;;;;30.75;25.45;;;9.10;82.60;;;6.98;100.00;96130.59;4969461;28;20027;-67
2021/11/14 09:03:15;;;;;;;31.10;24.45;;;9.20;81.90;;;7.01;99.92;96129.44;4967632;28;20077;-67
2021/11/14 09:05:41;;;;;;;31.40;24.67;;;9.30;81.50;;;7.03;99.54;96123.09;4968058;28;20058;-68
2021/11/14 09:08:07;;;;;;;29.42;23.92;;;9.40;81.40;;;7.08;99.76;96125.22;4968304;28;20050;-68
2021/11/14 09:10:35;;;;;;;30.73;24.40;;;9.40;81.40;;;7.14;99.75;96129.75;4974516;28;20043;-68
2021/11/14 09:13:01;;;;;;;29.00;23.98;;;9.40;81.00;;;7.19;98.96;96135.31;4962933;28;20041;-68
2021/11/14 09:15:29;;;;;;;28.60;23.25;;;9.50;81.30;;;7.27;99.21;96135.31;4982562;28;20081;-67
2021/11/14 09:17:56;;;;;;;26.20;21.73;;;9.60;81.20;;;7.31;99.24;96136.59;4954407;28;20097;-68
2021/11/14 09:20:22;;;;;;;30.23;21.60;;;9.60;81.00;;;7.33;98.97;96139.88;4964029;28;20518;-68
2021/11/14 09:22:48;;;;;;;25.85;21.20;;;9.60;80.70;;;7.41;98.12;96140.81;4952537;28;20043;-69
2021/11/14 09:25:14;;;;;;;27.02;21.40;;;9.60;80.30;;;7.44;97.95;96150.94;4955133;28;20045;-68
2021/11/14 09:27:40;;;;;;;25.33;20.42;;;9.70;80.80;;;7.43;98.01;96144.06;4977838;28;20030;-67
2021/11/14 09:30:07;;;;;;;25.00;20.15;;;9.60;80.40;;;7.44;97.52;96145.72;4982335;28;20054;-67
2021/11/14 09:32:33;;;;;;;27.08;21.02;;;9.60;80.60;;;7.47;97.71;96155.84;4980866;28;20038;-68
2021/11/14 09:34:58;;;;;;;26.52;20.98;;;9.70;80.70;;;7.50;97.80;96160.75;4973843;28;20113;-67
2021/11/14 09:37:25;;;;;;;24.52;19.13;;;9.70;80.90;;;7.51;98.05;96151.91;4972784;28;20062;-67
2021/11/14 09:39:51;;;;;;;25.10;19.55;;;9.80;80.50;;;7.59;97.72;96149.25;4957804;28;20046;-67
2021/11/14 09:42:17;;;;;;;26.25;20.83;;;9.90;80.80;;;7.64;97.78;96152.19;4988420;28;20063;-68
2021/11/14 09:44:43;;;;;;;25.58;20.50;;;9.90;80.80;;;7.65;97.99;96154.63;4975260;28;20062;-68
2021/11/14 09:47:09;;;;;;;23.90;20.27;;;9.80;80.40;;;7.65;97.24;96159.06;4956671;28;20114;-67
2021/11/14 09:49:34;;;;;;;25.15;19.38;;;9.80;80.30;;;7.58;96.72;96158.91;4984487;28;20045;-67
2021/11/14 09:52:03;;;;;;;26.30;20.75;;;9.70;80.00;;;7.55;96.16;96158.44;4968172;28;20121;-67
2021/11/14 09:54:29;;;;;;;25.08;19.25;;;9.60;80.10;;;7.52;96.66;96156.16;4968792;28;20074;-68
2021/11/14 09:56:55;;;;;;;30.23;22.40;;;9.60;80.40;;;7.51;96.10;96157.16;4969673;28;20063;-67
2021/11/14 09:59:21;;;;;;;29.95;24.85;;;9.60;80.40;;;7.52;96.67;96156.16;4982608;28;20114;-68
2021/11/14 10:01:48;;;;;;;28.63;21.95;;;9.60;81.00;;;7.52;96.19;96158.78;4968798;28;20581;-68
2021/11/14 10:04:14;;;;;;;24.75;19.40;;;9.60;80.70;;;7.50;96.43;96145.06;4967711;28;20332;-68
2021/11/14 10:06:40;;;;;;;24.60;18.58;;;9.60;80.80;;;7.48;96.28;96149.66;4972880;28;20027;-67
2021/11/14 10:09:06;;;;;;;24.17;19.10;;;9.50;80.50;;;7.44;95.82;96146.53;5003596;28;20449;-70